Time,TemperatureF,DewpointF,PressureIn,WindDirection,WindDirectionDegrees,WindSpeedMPH,WindSpeedGustMPH,Humidity,HourlyPrecipIn,Conditions,Clouds,dailyrainin,SoftwareType,DateUTC
2013-01-19 00:01:00,26.4,1.8,30.21,NE,52,0.0,0.0,34,0.00,CLR,,0.00,WeatherDisplay:10.37,2013-01-19 08:01:00,
2013-01-19 00:11:00,26.2,1.6,30.18,NE,52,0.0,0.0,34,0.00,CLR,,0.00,WeatherDisplay:10.37,2013-01-19 08:11:00,
2013-01-19 00:21:00,26.1,1.5,30.18,NE,52,0.0,0.0,34,0.00,CLR,,0.00,WeatherDisplay:10.37,2013-01-19 08:21:00,
2013-01-19 00:31:00,25.7,1.2,30.18,NE,52,0.0,0.0,34,0.00,CLR,,0.00,WeatherDisplay:10.37,2013-01-19 08:31:00,
2013-01-19 00:36:00,25.5,1.0,30.18,NE,52,0.0,0.0,34,0.00,CLR,,0.00,WeatherDisplay:10.37,2013-01-19 08:36:00,
2013-01-19 00:41:00,25.3,0.8,30.18,NE,52,0.0,0.0,34,0.00,CLR,,0.00,WeatherDisplay:10.37,2013-01-19 08:41:00,
2013-01-19 00:51:00,24.6,0.8,30.18,NE,52,0.0,0.0,35,0.00,CLR,,0.00,WeatherDisplay:10.37,2013-01-19 08:51:00,
2013-01-19 00:56:00,24.4,0.7,30.18,NE,52,0.0,0.0,35,0.00,CLR,,0.00,WeatherDisplay:10.37,2013-01-19 08:56:00,
2013-01-19 01:01:00,24.6,0.8,30.18,NE,52,0.0,0.0,35,0.00,CLR,,0.00,WeatherDisplay:10.37,2013-01-19 09:01:00,
2013-01-19 01:06:00,24.6,0.2,30.18,NE,52,0.0,0.0,34,0.00,CLR,,0.00,WeatherDisplay:10.37,2013-01-19 09:06:00,
2013-01-19 01:11:00,24.6,0.8,30.18,NE,52,0.0,0.0,35,0.00,CLR,,0.00,WeatherDisplay:10.37,2013-01-19 09:11:00,
2013-01-19 01:16:00,24.4,0.7,30.18,NE,52,0.0,0.0,35,0.00,CLR,,0.00,WeatherDisplay:10.37,2013-01-19 09:16:00,
2013-01-19 01:26:00,24.0,0.3,30.21,NE,52,0.0,0.0,35,0.00,CLR,,0.00,WeatherDisplay:10.37,2013-01-19 09:26:00,
2013-01-19 01:31:00,23.7,0.0,30.21,NE,52,0.0,0.0,35,0.00,CLR,,0.00,WeatherDisplay:10.37,2013-01-19 09:31:00,
2013-01-19 01:36:00,23.7,0.0,30.21,NE,52,0.0,0.0,35,0.00,CLR,,0.00,WeatherDisplay:10.37,2013-01-19 09:36:00,
2013-01-19 01:41:00,23.9,0.2,30.21,NE,52,0.0,0.0,35,0.00,CLR,,0.00,WeatherDisplay:10.37,2013-01-19 09:41:00,
2013-01-19 01:51:00,23.9,0.8,30.21,NE,52,0.0,0.0,36,0.00,CLR,,0.00,WeatherDisplay:10.37,2013-01-19 09:51:00,
2013-01-19 01:56:00,23.9,0.8,30.21,NE,52,0.0,0.0,36,0.00,CLR,,0.00,WeatherDisplay:10.37,2013-01-19 09:56:00,
2013-01-19 02:06:00,23.7,0.6,30.21,NE,52,0.0,0.0,36,0.00,CLR,,0.00,WeatherDisplay:10.37,2013-01-19 10:06:00,
2013-01-19 02:16:00,23.7,0.0,30.21,NE,52,0.0,0.0,35,0.00,CLR,,0.00,WeatherDisplay:10.37,2013-01-19 10:16:00,
2013-01-19 02:21:00,23.8,0.1,30.21,NE,52,0.0,0.0,35,0.00,CLR,,0.00,WeatherDisplay:10.37,2013-01-19 10:21:00,
2013-01-19 02:31:00,24.3,0.5,30.21,NE,52,0.0,0.0,35,0.00,CLR,,0.00,WeatherDisplay:10.37,2013-01-19 10:31:00,
2013-01-19 02:36:00,24.4,0.7,30.21,NE,52,0.0,0.0,35,0.00,CLR,,0.00,WeatherDisplay:10.37,2013-01-19 10:36:00,
2013-01-19 02:41:00,24.6,0.2,30.21,NE,52,0.0,0.0,34,0.00,CLR,,0.00,WeatherDisplay:10.37,2013-01-19 10:41:00,
2013-01-19 02:56:00,24.6,0.2,30.21,NE,52,0.0,0.0,34,0.00,CLR,,0.00,WeatherDisplay:10.37,2013-01-19 10:56:00,
2013-01-19 03:01:00,24.4,0.0,30.21,NE,52,0.0,0.0,34,0.00,CLR,,0.00,WeatherDisplay:10.37,2013-01-19 11:01:00,
2013-01-19 03:11:00,24.3,-0.1,30.21,NE,52,0.0,0.0,34,0.00,CLR,,0.00,WeatherDisplay:10.37,2013-01-19 11:11:00,
2013-01-19 04:51:00,24.3,-0.1,30.21,NE,52,0.0,0.0,34,0.00,CLR,,0.00,WeatherDisplay:10.37,2013-01-19 12:51:00,
2013-01-19 04:56:00,24.3,-0.1,30.21,NE,52,0.0,0.0,34,0.00,CLR,,0.00,WeatherDisplay:10.37,2013-01-19 12:56:00,
2013-01-19 05:01:00,24.1,-0.3,30.21,NE,52,0.0,0.0,34,0.00,CLR,,0.00,WeatherDisplay:10.37,2013-01-19 13:01:00,
2013-01-19 05:06:00,23.9,-0.4,30.21,NE,52,0.0,0.0,34,0.00,CLR,,0.00,WeatherDisplay:10.37,2013-01-19 13:06:00,
2013-01-19 05:11:00,23.7,-0.6,30.21,NE,52,0.0,0.0,34,0.00,CLR,,0.00,WeatherDisplay:10.37,2013-01-19 13:11:00,
2013-01-19 05:16:00,23.8,-0.6,30.21,NE,52,0.0,0.0,34,0.00,CLR,,0.00,WeatherDisplay:10.37,2013-01-19 13:16:00,
2013-01-19 05:21:00,24.1,-0.2,30.21,NE,52,0.0,0.0,34,0.00,CLR,,0.00,WeatherDisplay:10.37,2013-01-19 13:21:00,
2013-01-19 05:26:00,24.4,0.0,30.21,NE,52,0.0,0.0,34,0.00,CLR,,0.00,WeatherDisplay:10.37,2013-01-19 13:26:00,
2013-01-19 05:31:00,24.4,0.0,30.21,NE,52,0.0,0.0,34,0.00,CLR,,0.00,WeatherDisplay:10.37,2013-01-19 13:31:00,
2013-01-19 05:36:00,24.3,0.5,30.21,NE,52,0.0,0.0,35,0.00,CLR,,0.00,WeatherDisplay:10.37,2013-01-19 13:36:00,
2013-01-19 05:41:00,24.1,0.3,30.21,NE,52,0.0,0.0,35,0.00,CLR,,0.00,WeatherDisplay:10.37,2013-01-19 13:41:00,
2013-01-19 05:51:00,23.8,-0.6,30.21,NE,52,0.0,0.0,34,0.00,CLR,,0.00,WeatherDisplay:10.37,2013-01-19 13:51:00,
2013-01-19 05:56:00,23.5,-0.8,30.21,NE,52,0.0,0.0,34,0.00,CLR,,0.00,WeatherDisplay:10.37,2013-01-19 13:56:00,
2013-01-19 06:01:00,23.4,-0.3,30.21,NE,52,0.0,0.0,35,0.00,CLR,,0.00,WeatherDisplay:10.37,2013-01-19 14:01:00,
2013-01-19 06:06:00,23.2,-0.5,30.21,NE,52,0.0,0.0,35,0.00,CLR,,0.00,WeatherDisplay:10.37,2013-01-19 14:06:00,
2013-01-19 06:11:00,23.4,-0.9,30.21,NE,52,0.0,0.0,34,0.00,CLR,,0.00,WeatherDisplay:10.37,2013-01-19 14:11:00,
2013-01-19 06:21:00,23.2,-1.1,30.21,NE,52,0.0,0.0,34,0.00,CLR,,0.00,WeatherDisplay:10.37,2013-01-19 14:21:00,
2013-01-19 06:26:00,23.0,-0.6,30.21,NE,52,0.0,0.0,35,0.00,CLR,,0.00,WeatherDisplay:10.37,2013-01-19 14:26:00,
2013-01-19 06:31:00,23.0,-0.6,30.21,NE,52,0.0,0.0,35,0.00,CLR,,0.00,WeatherDisplay:10.37,2013-01-19 14:31:00,
2013-01-19 06:36:00,23.0,-0.6,30.21,NE,52,0.0,0.0,35,0.00,CLR,,0.00,WeatherDisplay:10.37,2013-01-19 14:36:00,
2013-01-19 06:51:00,22.8,-0.8,30.21,NE,52,0.0,0.0,35,0.00,CLR,,0.00,WeatherDisplay:10.37,2013-01-19 14:51:00,
2013-01-19 06:56:00,22.8,-0.8,30.21,NE,52,0.0,0.0,35,0.00,CLR,,0.00,WeatherDisplay:10.37,2013-01-19 14:56:00,
2013-01-19 07:01:00,22.6,-1.0,30.21,NE,52,0.0,0.0,35,0.00,CLR,,0.00,WeatherDisplay:10.37,2013-01-19 15:01:00,
2013-01-19 07:06:00,22.6,-1.0,30.24,NE,52,0.0,0.0,35,0.00,CLR,,0.00,WeatherDisplay:10.37,2013-01-19 15:06:00,
2013-01-19 07:11:00,22.6,-1.0,30.24,NE,52,0.0,0.0,35,0.00,CLR,,0.00,WeatherDisplay:10.37,2013-01-19 15:11:00,
2013-01-19 07:16:00,22.5,-1.1,30.24,NE,52,0.0,0.0,35,0.00,CLR,,0.00,WeatherDisplay:10.37,2013-01-19 15:16:00,
2013-01-19 07:21:00,22.8,-0.8,30.24,NE,52,0.0,0.0,35,0.00,CLR,,0.00,WeatherDisplay:10.37,2013-01-19 15:21:00,
2013-01-19 07:31:00,24.7,0.8,30.24,NE,52,0.0,0.0,35,0.00,CLR,,0.00,WeatherDisplay:10.37,2013-01-19 15:31:00,
2013-01-19 07:36:00,25.5,1.0,30.24,NE,52,0.0,0.0,34,0.00,CLR,,0.00,WeatherDisplay:10.37,2013-01-19 15:36:00,
2013-01-19 07:41:00,26.2,1.6,30.24,NE,52,0.0,0.0,34,0.00,CLR,,0.00,WeatherDisplay:10.37,2013-01-19 15:41:00,
2013-01-19 07:46:00,26.8,1.5,30.24,NE,52,0.0,0.0,33,0.00,CLR,,0.00,WeatherDisplay:10.37,2013-01-19 15:46:00,
2013-01-19 07:51:00,27.1,1.7,30.24,NE,52,0.0,0.0,33,0.00,CLR,,0.00,WeatherDisplay:10.37,2013-01-19 15:51:00,
2013-01-19 07:56:00,27.3,2.5,30.24,NE,52,0.0,0.0,34,0.00,CLR,,0.00,WeatherDisplay:10.37,2013-01-19 15:56:00,
2013-01-19 08:11:00,28.4,4.2,30.24,NE,52,0.0,0.0,35,0.00,CLR,,0.00,WeatherDisplay:10.37,2013-01-19 16:11:00,
2013-01-19 08:16:00,28.8,4.5,30.24,NE,52,0.0,0.0,35,0.00,CLR,,0.00,WeatherDisplay:10.37,2013-01-19 16:16:00,
2013-01-19 08:26:00,29.1,4.8,30.24,NE,52,0.0,0.0,35,0.00,CLR,,0.00,WeatherDisplay:10.37,2013-01-19 16:26:00,
2013-01-19 08:36:00,29.7,4.7,30.24,NE,52,0.0,0.0,34,0.00,CLR,,0.00,WeatherDisplay:10.37,2013-01-19 16:36:00,
2013-01-19 08:41:00,30.1,5.1,30.24,NE,52,0.0,0.0,34,0.00,CLR,,0.00,WeatherDisplay:10.37,2013-01-19 16:41:00,
2013-01-19 08:46:00,30.7,4.9,30.24,NE,52,0.0,0.0,33,0.00,CLR,,0.00,WeatherDisplay:10.37,2013-01-19 16:46:00,
2013-01-19 08:51:00,31.5,5.0,30.24,NE,52,0.0,0.0,32,0.00,CLR,,0.00,WeatherDisplay:10.37,2013-01-19 16:51:00,
2013-01-19 08:56:00,32.7,6.0,30.24,NE,52,0.0,0.0,32,0.00,CLR,,0.00,WeatherDisplay:10.37,2013-01-19 16:56:00,
2013-01-19 09:06:00,35.3,7.6,30.24,NE,52,0.0,0.0,31,0.00,CLR,,0.00,WeatherDisplay:10.37,2013-01-19 17:06:00,
2013-01-19 09:16:00,37.7,8.2,30.24,NE,52,0.0,0.0,29,0.00,CLR,,0.00,WeatherDisplay:10.37,2013-01-19 17:16:00,
2013-01-19 09:21:00,38.8,9.9,30.26,NE,52,0.0,0.0,30,0.00,CLR,,0.00,WeatherDisplay:10.37,2013-01-19 17:21:00,
2013-01-19 09:46:00,43.3,12.4,30.26,NE,52,0.0,0.0,28,0.00,CLR,,0.00,WeatherDisplay:10.37,2013-01-19 17:46:00,
2013-01-19 09:56:00,44.2,11.5,30.26,ESE,105,0.0,0.0,26,0.00,CLR,,0.00,WeatherDisplay:10.37,2013-01-19 17:56:00,
2013-01-19 10:01:00,44.3,10.6,30.26,SSW,209,0.0,0.0,25,0.00,CLR,,0.00,WeatherDisplay:10.37,2013-01-19 18:01:00,
2013-01-19 10:11:00,44.6,10.9,30.26,SW,217,0.0,0.0,25,0.00,CLR,,0.00,WeatherDisplay:10.37,2013-01-19 18:11:00,
2013-01-19 10:21:00,46.0,13.8,30.24,SSW,193,0.0,0.0,27,0.00,CLR,,0.00,WeatherDisplay:10.37,2013-01-19 18:21:00,
2013-01-19 10:26:00,47.2,14.0,30.24,South,176,0.0,3.0,26,0.00,CLR,,0.00,WeatherDisplay:10.37,2013-01-19 18:26:00,
2013-01-19 10:31:00,48.2,13.1,30.24,SSE,162,0.0,4.0,24,0.00,CLR,,0.00,WeatherDisplay:10.37,2013-01-19 18:31:00,
2013-01-19 10:36:00,49.1,13.8,30.24,SE,145,1.0,4.0,24,0.00,CLR,,0.00,WeatherDisplay:10.37,2013-01-19 18:36:00,
2013-01-19 10:41:00,49.9,12.5,30.24,SE,124,1.0,3.0,22,0.00,CLR,,0.00,WeatherDisplay:10.37,2013-01-19 18:41:00,
2013-01-19 10:46:00,50.2,11.7,30.24,East,91,3.0,6.0,21,0.00,CLR,,0.00,WeatherDisplay:10.37,2013-01-19 18:46:00,
2013-01-19 11:01:00,51.3,10.3,30.24,ENE,78,3.0,8.0,19,0.00,CLR,,0.00,WeatherDisplay:10.37,2013-01-19 19:01:00,
2013-01-19 11:06:00,51.4,10.5,30.24,East,82,5.0,8.0,19,0.00,CLR,,0.00,WeatherDisplay:10.37,2013-01-19 19:06:00,
2013-01-19 11:21:00,51.2,10.3,30.24,East,83,5.0,6.0,19,0.00,CLR,,0.00,WeatherDisplay:10.37,2013-01-19 19:21:00,
2013-01-19 11:46:00,51.2,10.3,30.21,East,88,5.0,6.0,19,0.00,CLR,,0.00,WeatherDisplay:10.37,2013-01-19 19:46:00,
2013-01-19 11:56:00,51.4,10.5,30.21,East,81,6.0,6.0,19,0.00,CLR,,0.00,WeatherDisplay:10.37,2013-01-19 19:56:00,
2013-01-19 12:06:00,51.3,10.3,30.21,East,84,3.0,6.0,19,0.00,CLR,,0.00,WeatherDisplay:10.37,2013-01-19 20:06:00,
2013-01-19 12:16:00,50.9,10.0,30.21,East,84,5.0,8.0,19,0.00,CLR,,0.00,WeatherDisplay:10.37,2013-01-19 20:16:00,
2013-01-19 12:26:00,50.7,9.9,30.21,East,97,5.0,7.0,19,0.00,CLR,,0.00,WeatherDisplay:10.37,2013-01-19 20:26:00,
2013-01-19 12:31:00,50.5,9.7,30.21,East,91,5.0,6.0,19,0.00,CLR,,0.00,WeatherDisplay:10.37,2013-01-19 20:31:00,
2013-01-19 12:41:00,50.5,9.7,30.21,East,87,5.0,8.0,19,0.00,CLR,,0.00,WeatherDisplay:10.37,2013-01-19 20:41:00,
2013-01-19 12:46:00,50.6,9.8,30.21,East,81,5.0,8.0,19,0.00,CLR,,0.00,WeatherDisplay:10.37,2013-01-19 20:46:00,
2013-01-19 13:16:00,50.7,9.9,30.18,East,80,6.0,6.0,19,0.00,CLR,,0.00,WeatherDisplay:10.37,2013-01-19 21:16:00,
2013-01-19 13:51:00,51.1,10.2,30.18,ESE,103,3.0,4.0,19,0.00,CLR,,0.00,WeatherDisplay:10.37,2013-01-19 21:51:00,
2013-01-19 13:56:00,50.9,10.0,30.18,East,92,3.0,5.0,19,0.00,CLR,,0.00,WeatherDisplay:10.37,2013-01-19 21:56:00,
2013-01-19 14:06:00,50.7,9.9,30.18,ENE,78,5.0,6.0,19,0.00,CLR,,0.00,WeatherDisplay:10.37,2013-01-19 22:06:00,
2013-01-19 14:11:00,50.5,9.7,30.18,East,91,2.0,5.0,19,0.00,CLR,,0.00,WeatherDisplay:10.37,2013-01-19 22:11:00,
2013-01-19 14:21:00,50.7,9.9,30.18,East,80,0.0,4.0,19,0.00,CLR,,0.00,WeatherDisplay:10.37,2013-01-19 22:21:00,
2013-01-19 14:26:00,50.7,9.9,30.18,East,80,3.0,5.0,19,0.00,CLR,,0.00,WeatherDisplay:10.37,2013-01-19 22:26:00,
2013-01-19 14:31:00,50.4,9.6,30.18,ENE,77,2.0,4.0,19,0.00,CLR,,0.00,WeatherDisplay:10.37,2013-01-19 22:31:00,
2013-01-19 14:41:00,50.4,9.6,30.18,East,90,3.0,6.0,19,0.00,CLR,,0.00,WeatherDisplay:10.37,2013-01-19 22:41:00,
2013-01-19 14:46:00,50.2,9.4,30.18,East,88,5.0,6.0,19,0.00,CLR,,0.00,WeatherDisplay:10.37,2013-01-19 22:46:00,
2013-01-19 14:56:00,50.0,9.3,30.18,East,85,3.0,6.0,19,0.00,CLR,,0.00,WeatherDisplay:10.37,2013-01-19 22:56:00,
2013-01-19 15:01:00,49.8,9.1,30.18,ENE,74,3.0,6.0,19,0.00,CLR,,0.00,WeatherDisplay:10.37,2013-01-19 23:01:00,
2013-01-19 15:11:00,49.6,9.0,30.18,East,93,3.0,6.0,19,0.00,CLR,,0.00,WeatherDisplay:10.37,2013-01-19 23:11:00,
2013-01-19 15:31:00,48.9,8.4,30.18,East,79,3.0,6.0,19,0.00,CLR,,0.00,WeatherDisplay:10.37,2013-01-19 23:31:00,
2013-01-19 15:41:00,48.7,8.2,30.18,East,91,3.0,6.0,19,0.00,CLR,,0.00,WeatherDisplay:10.37,2013-01-19 23:41:00,
2013-01-19 15:51:00,48.4,7.9,30.18,East,82,2.0,6.0,19,0.00,CLR,,0.00,WeatherDisplay:10.37,2013-01-19 23:51:00,
2013-01-19 15:56:00,48.2,7.8,30.18,East,81,0.0,6.0,19,0.00,CLR,,0.00,WeatherDisplay:10.37,2013-01-19 23:56:00,
2013-01-19 16:01:00,47.8,7.5,30.18,East,82,3.0,6.0,19,0.00,CLR,,0.00,WeatherDisplay:10.37,2013-01-20 00:01:00,
2013-01-19 16:16:00,46.9,6.7,30.18,East,91,5.0,6.0,19,0.00,CLR,,0.00,WeatherDisplay:10.37,2013-01-20 00:16:00,
2013-01-19 16:26:00,46.4,6.3,30.18,ENE,71,0.0,4.0,19,0.00,CLR,,0.00,WeatherDisplay:10.37,2013-01-20 00:26:00,
2013-01-19 16:41:00,44.7,6.0,30.18,ENE,58,1.0,5.0,20,0.00,CLR,,0.00,WeatherDisplay:10.37,2013-01-20 00:41:00,
2013-01-19 17:01:00,42.3,5.0,30.21,NNE,33,0.0,5.0,21,0.00,CLR,,0.00,WeatherDisplay:10.37,2013-01-20 01:01:00,
2013-01-19 17:11:00,41.0,4.0,30.21,NNE,31,0.0,0.0,21,0.00,CLR,,0.00,WeatherDisplay:10.37,2013-01-20 01:11:00,
2013-01-19 17:26:00,39.3,2.6,30.21,NNE,29,0.0,0.0,21,0.00,CLR,,0.00,WeatherDisplay:10.37,2013-01-20 01:26:00,
2013-01-19 17:31:00,38.7,2.0,30.21,NNE,29,0.0,0.0,21,0.00,CLR,,0.00,WeatherDisplay:10.37,2013-01-20 01:31:00,
2013-01-19 17:36:00,38.2,1.6,30.21,NNE,29,0.0,0.0,21,0.00,CLR,,0.00,WeatherDisplay:10.37,2013-01-20 01:36:00,
2013-01-19 17:51:00,37.2,1.8,30.21,NNE,29,0.0,0.0,22,0.00,CLR,,0.00,WeatherDisplay:10.37,2013-01-20 01:51:00,
2013-01-19 17:56:00,37.0,1.6,30.21,NNE,29,0.0,0.0,22,0.00,CLR,,0.00,WeatherDisplay:10.37,2013-01-20 01:56:00,
2013-01-19 18:11:00,37.0,1.6,30.21,NNE,29,0.0,0.0,22,0.00,CLR,,0.00,WeatherDisplay:10.37,2013-01-20 02:11:00,
2013-01-19 18:21:00,37.6,1.1,30.21,NE,46,0.0,0.0,21,0.00,CLR,,0.00,WeatherDisplay:10.37,2013-01-20 02:21:00,
2013-01-19 18:26:00,37.9,1.4,30.21,ENE,66,0.0,0.0,21,0.00,CLR,,0.00,WeatherDisplay:10.37,2013-01-20 02:26:00,
2013-01-19 18:41:00,37.3,1.9,30.21,ENE,70,0.0,0.0,22,0.00,CLR,,0.00,WeatherDisplay:10.37,2013-01-20 02:41:00,
2013-01-19 18:51:00,35.6,0.4,30.21,ENE,69,0.0,0.0,22,0.00,CLR,,0.00,WeatherDisplay:10.37,2013-01-20 02:51:00,
2013-01-19 19:01:00,34.3,-0.7,30.21,ENE,69,0.0,0.0,22,0.00,CLR,,0.00,WeatherDisplay:10.37,2013-01-20 03:01:00,
2013-01-19 19:06:00,33.6,-0.3,30.21,ENE,69,0.0,0.0,23,0.00,CLR,,0.00,WeatherDisplay:10.37,2013-01-20 03:06:00,
2013-01-19 19:11:00,33.3,-0.6,30.21,ENE,69,0.0,0.0,23,0.00,CLR,,0.00,WeatherDisplay:10.37,2013-01-20 03:11:00,
2013-01-19 19:21:00,32.5,-1.3,30.21,ENE,69,0.0,0.0,23,0.00,CLR,,0.00,WeatherDisplay:10.37,2013-01-20 03:21:00,
2013-01-19 19:36:00,32.4,-1.4,30.21,ENE,69,0.0,0.0,23,0.00,CLR,,0.00,WeatherDisplay:10.37,2013-01-20 03:36:00,
2013-01-19 19:41:00,32.4,-1.4,30.21,ENE,69,0.0,0.0,23,0.00,CLR,,0.00,WeatherDisplay:10.37,2013-01-20 03:41:00,
2013-01-19 19:51:00,32.2,-1.5,30.21,ENE,69,0.0,0.0,23,0.00,CLR,,0.00,WeatherDisplay:10.37,2013-01-20 03:51:00,
2013-01-19 20:01:00,31.3,-2.3,30.21,ENE,69,0.0,0.0,23,0.00,CLR,,0.00,WeatherDisplay:10.37,2013-01-20 04:01:00,
2013-01-19 20:06:00,30.9,-2.6,30.21,ENE,69,0.0,0.0,23,0.00,CLR,,0.00,WeatherDisplay:10.37,2013-01-20 04:06:00,
2013-01-19 20:16:00,30.2,-1.5,30.21,ENE,69,0.0,0.0,25,0.00,CLR,,0.00,WeatherDisplay:10.37,2013-01-20 04:16:00,
2013-01-19 20:26:00,29.7,-1.9,30.21,ENE,69,0.0,0.0,25,0.00,CLR,,0.00,WeatherDisplay:10.37,2013-01-20 04:26:00,
2013-01-19 20:31:00,29.5,-2.1,30.21,ENE,69,0.0,0.0,25,0.00,CLR,,0.00,WeatherDisplay:10.37,2013-01-20 04:31:00,
2013-01-19 20:41:00,29.5,-2.1,30.21,ENE,69,0.0,0.0,25,0.00,CLR,,0.00,WeatherDisplay:10.37,2013-01-20 04:41:00,
2013-01-19 20:51:00,29.5,-2.1,30.21,ENE,69,0.0,0.0,25,0.00,CLR,,0.00,WeatherDisplay:10.37,2013-01-20 04:51:00,
2013-01-19 21:06:00,29.5,-2.1,30.21,ENE,69,0.0,0.0,25,0.00,CLR,,0.00,WeatherDisplay:10.37,2013-01-20 05:06:00,
2013-01-19 21:11:00,29.4,-2.2,30.21,ENE,69,0.0,0.0,25,0.00,CLR,,0.00,WeatherDisplay:10.37,2013-01-20 05:11:00,
2013-01-19 21:16:00,29.1,-2.4,30.21,ENE,69,0.0,0.0,25,0.00,CLR,,0.00,WeatherDisplay:10.37,2013-01-20 05:16:00,
2013-01-19 21:26:00,29.1,-2.4,30.21,ENE,69,0.0,0.0,25,0.00,CLR,,0.00,WeatherDisplay:10.37,2013-01-20 05:26:00,
2013-01-19 21:31:00,28.8,-2.7,30.21,ENE,69,0.0,0.0,25,0.00,CLR,,0.00,WeatherDisplay:10.37,2013-01-20 05:31:00,
2013-01-19 21:36:00,28.4,-2.2,30.21,ENE,69,0.0,0.0,26,0.00,CLR,,0.00,WeatherDisplay:10.37,2013-01-20 05:36:00,
2013-01-19 21:41:00,28.0,-2.5,30.21,ENE,69,0.0,0.0,26,0.00,CLR,,0.00,WeatherDisplay:10.37,2013-01-20 05:41:00,
2013-01-19 21:46:00,27.9,-2.7,30.21,ENE,69,0.0,0.0,26,0.00,CLR,,0.00,WeatherDisplay:10.37,2013-01-20 05:46:00,
2013-01-19 21:51:00,27.9,-2.7,30.21,ENE,69,0.0,0.0,26,0.00,CLR,,0.00,WeatherDisplay:10.37,2013-01-20 05:51:00,
2013-01-19 21:56:00,27.9,-2.7,30.21,ENE,69,0.0,0.0,26,0.00,CLR,,0.00,WeatherDisplay:10.37,2013-01-20 05:56:00,
2013-01-19 22:01:00,27.9,-2.7,30.21,ENE,69,0.0,0.0,26,0.00,CLR,,0.00,WeatherDisplay:10.37,2013-01-20 06:01:00,
2013-01-19 22:06:00,27.7,-2.8,30.21,ENE,69,0.0,0.0,26,0.00,CLR,,0.00,WeatherDisplay:10.37,2013-01-20 06:06:00,
2013-01-19 22:16:00,28.0,-2.5,30.21,ENE,69,0.0,0.0,26,0.00,CLR,,0.00,WeatherDisplay:10.37,2013-01-20 06:16:00,
2013-01-19 22:21:00,28.4,-2.2,30.21,ENE,69,0.0,0.0,26,0.00,CLR,,0.00,WeatherDisplay:10.37,2013-01-20 06:21:00,
2013-01-19 22:26:00,28.4,-2.2,30.21,ENE,69,0.0,0.0,26,0.00,CLR,,0.00,WeatherDisplay:10.37,2013-01-20 06:26:00,
2013-01-19 22:31:00,28.4,-2.2,30.21,ENE,69,0.0,0.0,26,0.00,CLR,,0.00,WeatherDisplay:10.37,2013-01-20 06:31:00,
2013-01-19 22:36:00,28.0,-2.5,30.21,ENE,69,0.0,0.0,26,0.00,CLR,,0.00,WeatherDisplay:10.37,2013-01-20 06:36:00,
2013-01-19 22:41:00,28.0,-2.5,30.21,ENE,69,0.0,0.0,26,0.00,CLR,,0.00,WeatherDisplay:10.37,2013-01-20 06:41:00,
2013-01-19 22:46:00,27.9,-2.7,30.21,ENE,69,0.0,0.0,26,0.00,CLR,,0.00,WeatherDisplay:10.37,2013-01-20 06:46:00,
2013-01-19 22:56:00,27.5,-3.0,30.24,ENE,69,0.0,0.0,26,0.00,CLR,,0.00,WeatherDisplay:10.37,2013-01-20 06:56:00,
2013-01-19 23:01:00,27.3,-3.1,30.24,ENE,69,0.0,0.0,26,0.00,CLR,,0.00,WeatherDisplay:10.37,2013-01-20 07:01:00,
2013-01-19 23:06:00,27.3,-3.1,30.21,ENE,66,0.0,0.0,26,0.00,CLR,,0.00,WeatherDisplay:10.37,2013-01-20 07:06:00,
2013-01-19 23:11:00,27.3,-3.1,30.21,ENE,69,0.0,0.0,26,0.00,CLR,,0.00,WeatherDisplay:10.37,2013-01-20 07:11:00,
2013-01-19 23:16:00,27.5,-3.0,30.21,ENE,69,0.0,0.0,26,0.00,CLR,,0.00,WeatherDisplay:10.37,2013-01-20 07:16:00,
2013-01-19 23:21:00,27.5,-3.0,30.21,ENE,69,0.0,0.0,26,0.00,CLR,,0.00,WeatherDisplay:10.37,2013-01-20 07:21:00,
2013-01-19 23:26:00,27.5,-3.0,30.21,ENE,69,0.0,0.0,26,0.00,CLR,,0.00,WeatherDisplay:10.37,2013-01-20 07:26:00,
2013-01-19 23:31:00,27.3,-3.1,30.21,ENE,69,0.0,0.0,26,0.00,CLR,,0.00,WeatherDisplay:10.37,2013-01-20 07:31:00,
2013-01-19 23:36:00,27.3,-3.1,30.21,ENE,69,0.0,0.0,26,0.00,CLR,,0.00,WeatherDisplay:10.37,2013-01-20 07:36:00,
2013-01-19 23:41:00,27.2,-3.3,30.21,ENE,69,0.0,0.0,26,0.00,CLR,,0.00,WeatherDisplay:10.37,2013-01-20 07:41:00,
2013-01-19 23:46:00,27.1,-3.3,30.21,ENE,69,0.0,0.0,26,0.00,CLR,,0.00,WeatherDisplay:10.37,2013-01-20 07:46:00,
2013-01-19 23:51:00,27.0,-3.4,30.21,ENE,69,0.0,0.0,26,0.00,CLR,,0.00,WeatherDisplay:10.37,2013-01-20 07:51:00,
2013-01-19 23:56:00,27.0,-3.4,30.21,ENE,69,0.0,0.0,26,0.00,CLR,,0.00,WeatherDisplay:10.37,2013-01-20 07:56:00,